Time;durP1;ratioP1;P1;durP2;ratioP2;P2;SDS_P1;SDS_P2;PMS_P1;PMS_P2;Temp;Humidity;BMP_temperature;BMP_pressure;BME280_temperature;BME280_humidity;BME280_pressure;Samples;Min_cycle;Max_cycle;Signal;HPM_P1;HPM_P2
2023/01/03 00:01:57;;;;;;;3.23;0.80;;;;;;;;;;4931344;29;20658;-64
2023/01/03 00:04:24;;;;;;;1.10;0.80;;;;;;;;;;4932225;29;20197;-64
2023/01/03 00:06:51;;;;;;;3.03;0.93;;;;;;;;;;4915416;29;20195;-64
2023/01/03 00:09:20;;;;;;;3.10;0.90;;;;;;;;;;4928101;29;20246;-64
2023/01/03 00:14:38;;;;;;;1.90;0.70;;;;;;;;;;4923867;29;20223;-64
2023/01/03 00:17:23;;;;;;;1.73;0.77;;;;;;;;;;4931144;29;20200;-64
2023/01/03 00:19:50;;;;;;;1.80;0.60;;;;;;;;;;4930118;29;20225;-64
2023/01/03 00:22:17;;;;;;;1.87;0.70;;;;;;;;;;4913359;29;20643;-65
2023/01/03 00:24:44;;;;;;;1.13;0.50;;;;;;;;;;4931240;29;20946;-64
2023/01/03 00:27:11;;;;;;;1.17;0.50;;;;;;;;;;4931201;29;20207;-64
2023/01/03 00:29:38;;;;;;;2.07;0.60;;;;;;;;;;4911214;29;20190;-64
2023/01/03 00:32:04;;;;;;;1.97;0.70;;;;;;;;;;4919044;29;20257;-64
2023/01/03 00:34:31;;;;;;;2.83;0.77;;;;;;;;;;4933840;29;20203;-64
2023/01/03 00:36:58;;;;;;;0.80;0.60;;;;;;;;;;4933145;29;20274;-65
2023/01/03 00:39:25;;;;;;;1.93;0.60;;;;;;;;;;4934978;29;20215;-64
2023/01/03 00:41:52;;;;;;;2.23;0.70;;;;;;;;;;4928792;29;20195;-64
2023/01/03 00:44:36;;;;;;;4.10;0.67;;;;;;;;;;4923659;29;20666;-63
2023/01/03 00:47:03;;;;;;;2.93;0.80;;;;;;;;;;4923285;29;20191;-63
2023/01/03 00:49:29;;;;;;;1.43;0.63;;;;;;;;;;4918366;29;20199;-63
2023/01/03 00:51:57;;;;;;;0.97;0.50;;;;;;;;;;4933597;29;20199;-64
2023/01/03 00:54:23;;;;;;;3.07;0.67;;;;;;;;;;4922410;29;20197;-63
2023/01/03 00:56:50;;;;;;;3.13;0.50;;;;;;;;;;4924775;29;20729;-64
2023/01/03 00:59:17;;;;;;;1.97;0.77;;;;;;;;;;4929128;29;20254;-64
2023/01/03 01:01:51;;;;;;;1.73;0.40;;;;;;;;;;4931545;29;20203;-64
2023/01/03 01:04:20;;;;;;;4.23;0.73;;;;;;;;;;4933545;29;20186;-64
2023/01/03 01:06:54;;;;;;;0.97;0.40;;;;;;;;;;4925253;29;20543;-64
2023/01/03 01:09:23;;;;;;;3.63;1.07;;;;;;;;;;4931847;29;20195;-63
2023/01/03 01:11:49;;;;;;;1.57;0.70;;;;;;;;;;4933921;29;20191;-63
2023/01/03 01:14:20;;;;;;;2.57;0.90;;;;;;;;;;4934377;29;20203;-64
2023/01/03 01:16:49;;;;;;;5.83;1.10;;;;;;;;;;4932436;29;20201;-63
2023/01/03 01:19:16;;;;;;;4.03;1.50;;;;;;;;;;4934258;29;20278;-63
2023/01/03 01:21:42;;;;;;;3.23;1.30;;;;;;;;;;4925200;29;20250;-63
2023/01/03 01:24:10;;;;;;;1.77;1.13;;;;;;;;;;4917447;29;20274;-63
2023/01/03 01:26:43;;;;;;;3.30;1.10;;;;;;;;;;4925560;29;20555;-63
2023/01/03 01:29:10;;;;;;;2.70;1.17;;;;;;;;;;4932242;29;20214;-63
2023/01/03 01:31:37;;;;;;;3.27;1.10;;;;;;;;;;4918020;29;20187;-63
2023/01/03 01:34:03;;;;;;;3.97;1.10;;;;;;;;;;4933446;29;20229;-63
2023/01/03 01:36:32;;;;;;;4.20;1.20;;;;;;;;;;4935068;29;20234;-63
2023/01/03 01:39:00;;;;;;;2.80;0.90;;;;;;;;;;4934502;29;20206;-63
2023/01/03 02:15:53;;;;;;;4.73;1.10;;;;;;;;;;4915409;29;20363;-64
2023/01/03 02:18:20;;;;;;;2.93;1.10;;;;;;;;;;4915283;29;20278;-63
2023/01/03 02:20:49;;;;;;;1.63;1.10;;;;;;;;;;4918520;29;20773;-64
2023/01/03 02:23:35;;;;;;;4.50;1.20;;;;;;;;;;4933913;29;20226;-63
2023/01/03 02:26:10;;;;;;;4.13;1.20;;;;;;;;;;4932352;29;20215;-64
2023/01/03 02:29:03;;;;;;;1.77;0.97;;;;;;;;;;4932565;29;20186;-63
2023/01/03 02:31:36;;;;;;;3.50;1.10;;;;;;;;;;4898322;29;21515;-64
2023/01/03 02:34:29;;;;;;;3.10;1.10;;;;;;;;;;4918170;29;20930;-63
2023/01/03 02:37:07;;;;;;;2.30;0.80;;;;;;;;;;4899378;29;20294;-64
2023/01/03 02:39:40;;;;;;;3.03;0.90;;;;;;;;;;4933012;29;20573;-63
2023/01/03 02:45:05;;;;;;;3.83;1.20;;;;;;;;;;4933358;29;20718;-63
2023/01/03 02:47:35;;;;;;;3.57;0.87;;;;;;;;;;4932306;29;20198;-63
2023/01/03 02:50:02;;;;;;;5.60;1.10;;;;;;;;;;4900839;29;20187;-63
2023/01/03 02:52:28;;;;;;;3.10;1.20;;;;;;;;;;4931360;29;20734;-64
2023/01/03 02:54:57;;;;;;;3.40;1.13;;;;;;;;;;4932432;29;20187;-64
2023/01/03 02:57:34;;;;;;;2.77;0.67;;;;;;;;;;4927283;29;20611;-64
2023/01/03 03:00:23;;;;;;;4.63;1.30;;;;;;;;;;4921631;29;20738;-63
2023/01/03 03:02:50;;;;;;;3.73;1.10;;;;;;;;;;4920595;29;20325;-63
2023/01/03 03:05:20;;;;;;;3.40;1.20;;;;;;;;;;4940540;29;20201;-63
2023/01/03 03:07:47;;;;;;;2.87;1.13;;;;;;;;;;4932406;29;20195;-64
2023/01/03 03:13:13;;;;;;;5.90;1.00;;;;;;;;;;4931724;29;20196;-63
2023/01/03 03:15:41;;;;;;;4.37;1.00;;;;;;;;;;4930184;29;20210;-63
2023/01/03 03:18:11;;;;;;;2.77;1.13;;;;;;;;;;4910943;29;20249;-64
2023/01/03 03:26:15;;;;;;;3.67;1.00;;;;;;;;;;4911615;29;20211;-63
2023/01/03 03:28:43;;;;;;;5.03;0.97;;;;;;;;;;4908072;29;20192;-64
2023/01/03 03:31:11;;;;;;;4.43;1.00;;;;;;;;;;4922977;29;20454;-62
2023/01/03 03:33:40;;;;;;;1.97;0.83;;;;;;;;;;4912072;29;20201;-63
2023/01/03 03:36:07;;;;;;;4.67;0.80;;;;;;;;;;4913919;29;20203;-64
2023/01/03 03:38:35;;;;;;;3.13;0.80;;;;;;;;;;4912737;29;20196;-64
2023/01/03 03:47:24;;;;;;;3.83;0.77;;;;;;;;;;4897221;29;20195;-63
2023/01/03 03:50:11;;;;;;;1.53;0.47;;;;;;;;;;4905217;29;20548;-62
2023/01/03 03:52:37;;;;;;;4.93;0.77;;;;;;;;;;4912816;29;20199;-63
2023/01/03 03:55:06;;;;;;;3.23;0.57;;;;;;;;;;4912909;29;20329;-62
2023/01/03 03:57:43;;;;;;;1.40;0.60;;;;;;;;;;4910885;29;20192;-63
2023/01/03 04:00:28;;;;;;;4.20;1.03;;;;;;;;;;4920555;29;20300;-62
2023/01/03 04:02:55;;;;;;;1.57;0.53;;;;;;;;;;4910830;29;20247;-64
2023/01/03 04:05:22;;;;;;;6.00;0.73;;;;;;;;;;4895777;29;20213;-62
2023/01/03 04:07:49;;;;;;;3.77;0.77;;;;;;;;;;4910697;29;20199;-62
2023/01/03 04:10:19;;;;;;;2.43;0.87;;;;;;;;;;4914954;29;20206;-62
2023/01/03 04:12:46;;;;;;;3.33;0.90;;;;;;;;;;4914505;29;20784;-62
2023/01/03 04:15:13;;;;;;;6.13;0.90;;;;;;;;;;4916014;29;20203;-62
2023/01/03 04:17:40;;;;;;;2.73;0.57;;;;;;;;;;4915596;29;20194;-61
2023/01/03 04:20:07;;;;;;;2.43;0.60;;;;;;;;;;4910082;29;20212;-62
2023/01/03 04:22:34;;;;;;;2.77;0.50;;;;;;;;;;4910245;29;20207;-62
2023/01/03 04:25:01;;;;;;;2.87;0.60;;;;;;;;;;4918425;29;20782;-63
2023/01/03 04:27:28;;;;;;;2.17;0.80;;;;;;;;;;4915204;29;20192;-63
2023/01/03 04:29:54;;;;;;;2.70;0.53;;;;;;;;;;4915725;29;20259;-63
2023/01/03 04:32:21;;;;;;;2.47;0.63;;;;;;;;;;4916043;29;20195;-63
2023/01/03 04:34:48;;;;;;;3.60;0.90;;;;;;;;;;4913047;29;20599;-62
2023/01/03 04:37:15;;;;;;;2.20;0.50;;;;;;;;;;4907640;29;20291;-62
2023/01/03 04:39:41;;;;;;;4.43;0.73;;;;;;;;;;4915640;29;20207;-64
2023/01/03 04:44:53;;;;;;;2.07;0.70;;;;;;;;;;4899529;29;20970;-63
2023/01/03 04:47:20;;;;;;;4.27;0.93;;;;;;;;;;4916656;29;20224;-63
2023/01/03 04:49:47;;;;;;;2.00;1.10;;;;;;;;;;4914760;29;20602;-63
2023/01/03 04:52:14;;;;;;;4.33;0.63;;;;;;;;;;4915003;29;20187;-64
2023/01/03 04:54:41;;;;;;;3.93;0.87;;;;;;;;;;4905333;29;20230;-62
2023/01/03 04:57:07;;;;;;;4.50;0.67;;;;;;;;;;4913248;29;20199;-64
2023/01/03 04:59:34;;;;;;;2.77;0.70;;;;;;;;;;4911577;29;20207;-63
2023/01/03 05:02:01;;;;;;;1.37;0.57;;;;;;;;;;4912636;29;20191;-63
2023/01/03 05:04:30;;;;;;;6.37;0.93;;;;;;;;;;4909913;29;20191;-63
2023/01/03 05:06:57;;;;;;;2.77;0.50;;;;;;;;;;4912536;29;20267;-64
2023/01/03 05:09:26;;;;;;;6.27;1.50;;;;;;;;;;4912267;29;20187;-62
2023/01/03 05:11:53;;;;;;;1.83;0.77;;;;;;;;;;4920863;29;20188;-62
2023/01/03 05:14:19;;;;;;;2.60;0.70;;;;;;;;;;4904406;29;20291;-62
2023/01/03 05:16:46;;;;;;;5.30;1.27;;;;;;;;;;4901235;29;21347;-63
2023/01/03 05:19:13;;;;;;;2.57;0.80;;;;;;;;;;4910406;29;20274;-63
2023/01/03 05:27:21;;;;;;;6.63;0.93;;;;;;;;;;4876018;29;20234;-64
2023/01/03 05:30:06;;;;;;;3.20;1.00;;;;;;;;;;4893982;29;20169;-63
2023/01/03 05:32:33;;;;;;;3.23;1.10;;;;;;;;;;4908375;29;20200;-63
2023/01/03 05:34:59;;;;;;;1.83;0.80;;;;;;;;;;4913361;29;20199;-62
2023/01/03 05:37:26;;;;;;;4.50;0.90;;;;;;;;;;4913751;29;20195;-62
2023/01/03 05:39:52;;;;;;;2.80;0.80;;;;;;;;;;4903560;29;20223;-63
2023/01/03 05:42:19;;;;;;;2.53;0.80;;;;;;;;;;4912437;29;20479;-62
2023/01/03 05:44:46;;;;;;;5.27;1.17;;;;;;;;;;4905788;29;20200;-62
2023/01/03 05:47:13;;;;;;;1.43;0.70;;;;;;;;;;4909691;29;20543;-63
2023/01/03 05:49:40;;;;;;;2.00;1.07;;;;;;;;;;4914009;29;20485;-63
2023/01/03 05:52:07;;;;;;;3.07;0.70;;;;;;;;;;4913073;29;20557;-63
2023/01/03 05:54:33;;;;;;;3.53;1.20;;;;;;;;;;4912297;29;20218;-63
2023/01/03 05:57:18;;;;;;;5.47;1.10;;;;;;;;;;4897068;29;20427;-63
2023/01/03 05:59:45;;;;;;;1.50;0.70;;;;;;;;;;4908326;29;20573;-62
2023/01/03 06:02:12;;;;;;;14.47;1.10;;;;;;;;;;4910803;29;20278;-62
2023/01/03 06:04:39;;;;;;;4.83;1.00;;;;;;;;;;4910657;29;20239;-61
2023/01/03 06:07:05;;;;;;;5.60;0.80;;;;;;;;;;4912238;29;20812;-63
2023/01/03 06:09:32;;;;;;;8.97;2.57;;;;;;;;;;4917414;29;20203;-65
2023/01/03 06:11:59;;;;;;;7.80;1.90;;;;;;;;;;4912809;29;20259;-62
2023/01/03 06:14:26;;;;;;;6.17;1.80;;;;;;;;;;4912522;29;20284;-61
2023/01/03 06:19:39;;;;;;;2.53;0.80;;;;;;;;;;4910685;29;20293;-62
2023/01/03 06:22:05;;;;;;;4.13;1.00;;;;;;;;;;4911512;29;20195;-62
2023/01/03 06:24:37;;;;;;;4.40;1.00;;;;;;;;;;4911462;29;20282;-62
2023/01/03 06:27:04;;;;;;;6.47;1.10;;;;;;;;;;4923707;29;20224;-63
2023/01/03 06:29:31;;;;;;;6.10;1.23;;;;;;;;;;4932453;29;20289;-66
2023/01/03 06:31:57;;;;;;;4.00;0.87;;;;;;;;;;4932513;29;20199;-63
2023/01/03 06:34:32;;;;;;;3.47;1.10;;;;;;;;;;4921133;29;20563;-63
2023/01/03 06:36:59;;;;;;;6.53;1.30;;;;;;;;;;4923391;29;20242;-62
2023/01/03 06:39:25;;;;;;;6.77;1.20;;;;;;;;;;4914754;29;20204;-64
2023/01/03 06:41:52;;;;;;;5.87;0.83;;;;;;;;;;4914257;29;20215;-63
2023/01/03 06:44:19;;;;;;;2.57;0.90;;;;;;;;;;4914544;29;20192;-63
2023/01/03 06:53:11;;;;;;;3.20;1.27;;;;;;;;;;4914312;29;20250;-62
2023/01/03 06:55:19;;;;;;;3.73;0.97;;;;;;;;;;4908332;29;20891;-62
2023/01/03 06:57:45;;;;;;;4.13;0.77;;;;;;;;;;4915927;29;20202;-62
2023/01/03 07:00:15;;;;;;;6.17;1.03;;;;;;;;;;4931916;29;20246;-62
2023/01/03 07:02:42;;;;;;;7.07;1.27;;;;;;;;;;4933230;29;20195;-62
2023/01/03 07:05:09;;;;;;;3.97;1.37;;;;;;;;;;4933297;29;20217;-63
2023/01/03 07:07:35;;;;;;;2.50;1.00;;;;;;;;;;4932827;29;20804;-63
2023/01/03 07:10:02;;;;;;;7.13;1.60;;;;;;;;;;4918535;29;20460;-62
2023/01/03 07:15:14;;;;;;;4.20;1.50;;;;;;;;;;4914364;29;20401;-63
2023/01/03 07:17:41;;;;;;;5.27;1.00;;;;;;;;;;4913970;29;20243;-63
2023/01/03 07:20:08;;;;;;;2.87;0.80;;;;;;;;;;4913733;29;20282;-63
2023/01/03 07:22:34;;;;;;;3.83;1.30;;;;;;;;;;4896692;29;20195;-62
2023/01/03 07:25:01;;;;;;;5.40;1.00;;;;;;;;;;4924684;29;20234;-63
2023/01/03 07:27:28;;;;;;;3.70;0.97;;;;;;;;;;4932791;29;20190;-63
2023/01/03 07:29:54;;;;;;;5.10;1.27;;;;;;;;;;4932773;29;20190;-62
2023/01/03 07:32:21;;;;;;;3.80;0.90;;;;;;;;;;4931985;29;20223;-63
2023/01/03 07:34:48;;;;;;;4.17;1.10;;;;;;;;;;4931961;29;20693;-62
2023/01/03 07:37:16;;;;;;;5.47;1.67;;;;;;;;;;4913811;29;20330;-62
2023/01/03 07:39:43;;;;;;;8.00;1.40;;;;;;;;;;4929857;29;21092;-62
2023/01/03 07:45:13;;;;;;;3.33;0.87;;;;;;;;;;4913354;29;20824;-62
2023/01/03 07:47:44;;;;;;;4.70;1.50;;;;;;;;;;4927947;29;20662;-62
2023/01/03 07:50:11;;;;;;;6.17;1.83;;;;;;;;;;4928735;29;20258;-63
2023/01/03 07:52:38;;;;;;;5.23;1.17;;;;;;;;;;4912105;29;20694;-63
2023/01/03 07:55:05;;;;;;;4.57;1.00;;;;;;;;;;4928597;29;20446;-63
2023/01/03 07:57:51;;;;;;;4.07;0.90;;;;;;;;;;4929217;29;20195;-62
2023/01/03 08:00:18;;;;;;;4.90;1.20;;;;;;;;;;4924003;29;20225;-63
2023/01/03 08:03:02;;;;;;;3.40;1.20;;;;;;;;;;4927787;29;20269;-63
2023/01/03 08:05:36;;;;;;;5.63;1.53;;;;;;;;;;4929441;29;20199;-64
2023/01/03 08:08:03;;;;;;;6.83;1.00;;;;;;;;;;4929564;29;20321;-64
2023/01/03 08:13:18;;;;;;;4.73;1.43;;;;;;;;;;4929578;29;20198;-65
2023/01/03 08:15:49;;;;;;;4.17;1.10;;;;;;;;;;4929103;29;20663;-64
2023/01/03 08:18:16;;;;;;;5.37;1.40;;;;;;;;;;4928444;29;20689;-64
2023/01/03 08:20:43;;;;;;;8.67;1.70;;;;;;;;;;4920938;29;20301;-63
2023/01/03 08:23:10;;;;;;;5.73;1.20;;;;;;;;;;4931668;29;20186;-64
2023/01/03 08:25:37;;;;;;;4.47;0.60;;;;;;;;;;4938688;28;20289;-64
2023/01/03 08:28:04;;;;;;;2.63;1.13;;;;;;;;;;4929734;29;20219;-62
2023/01/03 08:30:31;;;;;;;14.47;1.57;;;;;;;;;;4934568;28;20190;-64
2023/01/03 08:33:00;;;;;;;4.57;0.90;;;;;;;;;;4948821;29;20208;-64
2023/01/03 08:35:27;;;;;;;4.20;1.17;;;;;;;;;;4939913;28;20195;-63
2023/01/03 08:37:54;;;;;;;6.70;1.30;;;;;;;;;;4910942;28;20248;-63
2023/01/03 08:40:21;;;;;;;2.33;0.97;;;;;;;;;;4921835;29;20233;-64
2023/01/03 08:42:47;;;;;;;4.40;1.27;;;;;;;;;;4931224;29;20209;-63
2023/01/03 08:45:14;;;;;;;4.50;1.00;;;;;;;;;;4941432;28;20227;-63
2023/01/03 08:47:41;;;;;;;5.17;0.80;;;;;;;;;;4928910;29;20202;-63
2023/01/03 08:50:08;;;;;;;3.80;0.70;;;;;;;;;;4912213;29;20202;-63
2023/01/03 08:52:35;;;;;;;3.03;0.43;;;;;;;;;;4912014;29;20781;-63
2023/01/03 08:55:02;;;;;;;5.30;1.10;;;;;;;;;;4923151;29;20199;-63
2023/01/03 08:57:29;;;;;;;4.90;1.30;;;;;;;;;;4931956;29;20550;-65
2023/01/03 08:59:55;;;;;;;4.97;1.17;;;;;;;;;;4932482;29;20198;-66
2023/01/03 09:02:25;;;;;;;6.93;1.03;;;;;;;;;;4921772;29;20968;-63
2023/01/03 09:04:52;;;;;;;5.77;1.50;;;;;;;;;;4932203;29;20203;-64
2023/01/03 09:07:19;;;;;;;5.70;1.40;;;;;;;;;;4934665;29;20199;-65
2023/01/03 09:09:46;;;;;;;7.90;1.97;;;;;;;;;;4933576;29;20219;-66
2023/01/03 09:12:13;;;;;;;6.23;1.47;;;;;;;;;;4944725;28;20250;-64
2023/01/03 09:14:39;;;;;;;4.63;0.90;;;;;;;;;;4932369;29;20198;-61
2023/01/03 09:17:07;;;;;;;8.57;1.87;;;;;;;;;;4930944;29;20194;-63
2023/01/03 09:19:33;;;;;;;5.57;1.50;;;;;;;;;;4932812;29;20182;-62
2023/01/03 09:22:00;;;;;;;7.77;1.87;;;;;;;;;;4931910;29;20309;-62
2023/01/03 09:24:27;;;;;;;8.77;1.80;;;;;;;;;;4932820;29;20214;-62
2023/01/03 09:26:54;;;;;;;7.70;1.60;;;;;;;;;;4930619;29;20233;-62
2023/01/03 09:29:21;;;;;;;5.80;1.90;;;;;;;;;;4932143;29;20866;-63
2023/01/03 09:31:48;;;;;;;7.90;1.83;;;;;;;;;;4931701;29;20659;-63
2023/01/03 09:34:17;;;;;;;16.50;1.70;;;;;;;;;;4931719;29;20183;-63
2023/01/03 09:36:43;;;;;;;5.47;1.60;;;;;;;;;;4933112;29;20569;-62
2023/01/03 09:39:10;;;;;;;2.80;1.10;;;;;;;;;;4897210;29;20239;-64
2023/01/03 09:41:37;;;;;;;3.47;1.03;;;;;;;;;;4931737;29;20230;-64
2023/01/03 09:44:05;;;;;;;6.57;1.30;;;;;;;;;;4915099;29;20191;-64
2023/01/03 09:46:32;;;;;;;6.80;1.27;;;;;;;;;;4915308;29;20340;-64
2023/01/03 09:49:16;;;;;;;4.97;1.23;;;;;;;;;;4912553;29;20176;-65
2023/01/03 10:06:04;;;;;;;2.13;0.80;;;;;;;;;;4931683;29;20202;-64
2023/01/03 10:08:31;;;;;;;4.40;1.10;;;;;;;;;;4932751;29;20195;-64
2023/01/03 10:11:19;;;;;;;3.43;0.77;;;;;;;;;;4939589;29;20198;-64
2023/01/03 10:14:04;;;;;;;6.90;1.37;;;;;;;;;;4910119;29;20199;-66
2023/01/03 10:16:35;;;;;;;4.37;1.00;;;;;;;;;;4929288;29;20202;-65
2023/01/03 10:19:02;;;;;;;9.27;3.00;;;;;;;;;;4913897;29;20200;-65
2023/01/03 10:21:47;;;;;;;6.87;2.00;;;;;;;;;;4944409;28;20717;-64
2023/01/03 10:24:24;;;;;;;7.93;1.40;;;;;;;;;;4912237;29;20274;-65
2023/01/03 10:26:56;;;;;;;5.90;1.50;;;;;;;;;;4913929;29;20470;-65
2023/01/03 10:29:40;;;;;;;8.40;1.87;;;;;;;;;;4921516;29;20183;-65
2023/01/03 10:32:22;;;;;;;7.60;1.67;;;;;;;;;;4914337;29;20195;-65
2023/01/03 10:35:36;;;;;;;6.57;1.47;;;;;;;;;;4930213;29;20249;-64
2023/01/03 10:38:02;;;;;;;3.93;0.77;;;;;;;;;;4897673;28;20238;-66
2023/01/03 10:40:30;;;;;;;5.27;1.60;;;;;;;;;;4914233;29;20187;-64
2023/01/03 10:42:57;;;;;;;9.33;1.60;;;;;;;;;;4931144;29;20218;-64
2023/01/03 10:45:24;;;;;;;6.23;1.30;;;;;;;;;;4901656;29;20728;-65
2023/01/03 10:47:58;;;;;;;7.73;1.50;;;;;;;;;;4918091;29;20214;-64
2023/01/03 10:50:25;;;;;;;5.10;1.07;;;;;;;;;;4914490;29;20201;-67
2023/01/03 10:53:12;;;;;;;8.47;1.67;;;;;;;;;;4928856;29;20191;-63
2023/01/03 10:55:49;;;;;;;7.00;1.37;;;;;;;;;;4930920;29;20206;-62
2023/01/03 10:58:33;;;;;;;2.40;1.07;;;;;;;;;;4915760;29;20195;-63
2023/01/03 11:01:08;;;;;;;8.13;1.40;;;;;;;;;;4930714;29;20206;-62
2023/01/03 11:03:38;;;;;;;4.80;1.40;;;;;;;;;;4929632;29;20197;-63
2023/01/03 11:06:06;;;;;;;7.00;1.83;;;;;;;;;;4930547;29;20234;-63
2023/01/03 11:08:43;;;;;;;6.40;1.20;;;;;;;;;;4929713;28;20223;-64
2023/01/03 11:11:31;;;;;;;10.43;1.83;;;;;;;;;;4927659;29;20557;-64
2023/01/03 11:14:04;;;;;;;7.67;1.90;;;;;;;;;;4929607;29;20202;-63
2023/01/03 11:16:32;;;;;;;7.57;1.87;;;;;;;;;;4929909;29;20206;-65
2023/01/03 11:19:03;;;;;;;6.97;1.47;;;;;;;;;;4908725;29;20188;-64
2023/01/03 11:21:45;;;;;;;7.10;1.50;;;;;;;;;;4923312;29;20219;-65
2023/01/03 11:24:38;;;;;;;9.57;1.50;;;;;;;;;;4923197;29;20191;-63
2023/01/03 11:27:18;;;;;;;3.83;1.30;;;;;;;;;;4929824;29;20202;-63
2023/01/03 11:30:07;;;;;;;7.67;1.40;;;;;;;;;;4929745;29;21071;-64
2023/01/03 11:32:38;;;;;;;5.97;0.77;;;;;;;;;;4910601;29;20194;-62
2023/01/03 11:35:14;;;;;;;5.27;1.50;;;;;;;;;;4913029;29;20282;-63
2023/01/03 11:37:51;;;;;;;6.80;1.50;;;;;;;;;;4907432;29;20218;-63
2023/01/03 11:40:20;;;;;;;3.50;1.17;;;;;;;;;;4913049;29;20226;-63
2023/01/03 11:43:22;;;;;;;2.10;1.07;;;;;;;;;;4938750;29;20214;-64
2023/01/03 11:46:07;;;;;;;5.80;1.90;;;;;;;;;;4832470;29;20240;-64
2023/01/03 11:48:34;;;;;;;4.87;1.33;;;;;;;;;;4928372;29;20298;-65
2023/01/03 11:51:10;;;;;;;3.13;1.20;;;;;;;;;;4930784;29;20195;-64
2023/01/03 11:53:53;;;;;;;5.43;1.53;;;;;;;;;;4933130;29;20197;-64
2023/01/03 11:56:26;;;;;;;2.77;1.07;;;;;;;;;;4926244;29;20187;-63
2023/01/03 11:59:14;;;;;;;3.77;1.33;;;;;;;;;;4928840;29;20190;-64
2023/01/03 12:02:02;;;;;;;4.37;1.77;;;;;;;;;;4912647;29;20233;-65
2023/01/03 12:04:32;;;;;;;7.60;1.80;;;;;;;;;;4912703;29;20194;-65
2023/01/03 12:06:59;;;;;;;3.83;1.40;;;;;;;;;;4929534;29;20281;-64
2023/01/03 12:10:03;;;;;;;3.57;1.13;;;;;;;;;;4929455;29;20226;-63
2023/01/03 12:12:30;;;;;;;8.83;1.87;;;;;;;;;;4912746;29;20229;-64
2023/01/03 12:15:02;;;;;;;6.20;1.90;;;;;;;;;;4921594;29;20186;-64
2023/01/03 12:17:36;;;;;;;5.43;1.60;;;;;;;;;;4912912;29;20220;-64
2023/01/03 12:20:09;;;;;;;6.17;1.40;;;;;;;;;;4912561;29;21005;-65
2023/01/03 12:22:37;;;;;;;5.00;1.67;;;;;;;;;;4912908;29;20226;-63
2023/01/03 12:25:16;;;;;;;7.83;1.60;;;;;;;;;;4912835;29;20965;-65
2023/01/03 12:27:47;;;;;;;3.60;1.07;;;;;;;;;;4929954;29;20190;-65
2023/01/03 12:30:20;;;;;;;5.73;1.70;;;;;;;;;;4918758;29;20195;-64
2023/01/03 12:32:52;;;;;;;6.07;1.40;;;;;;;;;;4930716;29;20190;-64
2023/01/03 12:35:38;;;;;;;3.20;1.30;;;;;;;;;;4933673;29;20785;-65
2023/01/03 12:38:07;;;;;;;5.00;1.63;;;;;;;;;;4941068;29;20226;-65
2023/01/03 12:40:46;;;;;;;5.57;1.90;;;;;;;;;;4900408;29;20502;-66
2023/01/03 12:43:27;;;;;;;6.00;1.93;;;;;;;;;;4915801;29;20234;-64
2023/01/03 12:46:14;;;;;;;7.73;1.90;;;;;;;;;;4897697;29;20196;-64
2023/01/03 12:48:44;;;;;;;6.47;1.83;;;;;;;;;;4919441;29;20233;-63
2023/01/03 12:51:12;;;;;;;5.90;1.70;;;;;;;;;;4931941;29;20187;-62
2023/01/03 12:53:40;;;;;;;7.13;2.10;;;;;;;;;;4916797;29;20957;-63
2023/01/03 12:56:12;;;;;;;3.50;1.80;;;;;;;;;;4932945;29;20658;-61
2023/01/03 12:58:42;;;;;;;5.10;1.97;;;;;;;;;;4935964;29;20536;-64
2023/01/03 13:01:10;;;;;;;7.53;1.70;;;;;;;;;;4932541;29;20219;-62
2023/01/03 13:03:38;;;;;;;6.90;2.57;;;;;;;;;;4932482;29;21017;-65
2023/01/03 13:06:09;;;;;;;7.53;1.87;;;;;;;;;;4924617;29;20522;-62
2023/01/03 13:08:46;;;;;;;5.53;1.80;;;;;;;;;;4921009;29;20481;-63
2023/01/03 13:11:28;;;;;;;7.70;2.23;;;;;;;;;;4927658;29;20690;-62
2023/01/03 13:14:02;;;;;;;4.50;1.80;;;;;;;;;;4920273;29;20202;-63
2023/01/03 13:16:28;;;;;;;5.53;1.80;;;;;;;;;;4932211;29;20202;-63
2023/01/03 13:18:56;;;;;;;5.50;1.80;;;;;;;;;;4936129;29;20454;-62
2023/01/03 13:21:41;;;;;;;6.07;1.80;;;;;;;;;;4922204;29;20230;-63
2023/01/03 13:24:08;;;;;;;6.33;2.00;;;;;;;;;;4933540;29;20187;-64
2023/01/03 13:26:35;;;;;;;4.60;1.33;;;;;;;;;;4933337;29;20474;-64
2023/01/03 13:29:20;;;;;;;6.50;2.37;;;;;;;;;;4915795;29;20752;-63
2023/01/03 13:32:01;;;;;;;5.63;2.00;;;;;;;;;;4929741;29;20852;-63
2023/01/03 13:34:28;;;;;;;6.77;1.60;;;;;;;;;;4931188;29;20567;-64
2023/01/03 13:37:14;;;;;;;4.80;1.63;;;;;;;;;;4920350;29;20710;-63
2023/01/03 13:39:49;;;;;;;7.30;1.63;;;;;;;;;;4934588;29;20877;-63
2023/01/03 13:42:19;;;;;;;6.90;2.03;;;;;;;;;;4931259;29;20218;-62
2023/01/03 13:44:46;;;;;;;5.07;1.30;;;;;;;;;;4930635;29;20816;-62
2023/01/03 13:47:48;;;;;;;4.57;1.57;;;;;;;;;;4912315;29;20447;-63
2023/01/03 13:50:33;;;;;;;4.10;1.77;;;;;;;;;;4898625;29;20203;-63
2023/01/03 13:53:02;;;;;;;3.77;1.70;;;;;;;;;;4917882;29;20182;-63
2023/01/03 13:55:50;;;;;;;9.53;2.20;;;;;;;;;;4935615;29;21031;-63
2023/01/03 13:58:26;;;;;;;6.73;1.23;;;;;;;;;;4923386;29;20658;-62
2023/01/03 14:00:54;;;;;;;2.90;1.30;;;;;;;;;;4931409;29;20197;-63
2023/01/03 14:03:45;;;;;;;6.40;1.70;;;;;;;;;;4931236;29;20230;-64
2023/01/03 14:06:49;;;;;;;7.93;1.70;;;;;;;;;;4895689;29;20179;-64
2023/01/03 14:09:16;;;;;;;3.47;1.50;;;;;;;;;;4922492;29;20225;-63
2023/01/03 14:12:19;;;;;;;3.63;1.70;;;;;;;;;;4931596;29;20927;-63
2023/01/03 14:14:48;;;;;;;4.43;2.20;;;;;;;;;;4931024;29;20454;-64
2023/01/03 14:17:33;;;;;;;4.47;1.50;;;;;;;;;;4917056;29;20433;-64
2023/01/03 14:20:04;;;;;;;3.37;1.57;;;;;;;;;;4915867;29;20191;-63
2023/01/03 14:22:49;;;;;;;4.13;2.03;;;;;;;;;;4932861;29;20195;-63
2023/01/03 14:25:34;;;;;;;5.40;1.90;;;;;;;;;;4928220;29;20228;-62
2023/01/03 14:28:20;;;;;;;6.43;2.30;;;;;;;;;;4914831;29;20195;-64
2023/01/03 14:30:58;;;;;;;7.03;2.30;;;;;;;;;;4914812;29;20271;-63
2023/01/03 14:33:29;;;;;;;4.70;1.67;;;;;;;;;;4911820;29;20483;-64
2023/01/03 14:36:06;;;;;;;6.87;2.10;;;;;;;;;;4915329;29;20250;-64
2023/01/03 14:38:33;;;;;;;6.57;2.60;;;;;;;;;;4930136;29;20201;-63
2023/01/03 14:41:00;;;;;;;4.73;2.27;;;;;;;;;;4910256;29;20195;-62
2023/01/03 14:43:27;;;;;;;4.80;2.83;;;;;;;;;;4913295;29;20238;-63
2023/01/03 14:45:54;;;;;;;8.20;2.37;;;;;;;;;;4926171;29;20442;-63
2023/01/03 14:48:21;;;;;;;6.57;1.60;;;;;;;;;;4929588;29;20515;-63
2023/01/03 14:50:48;;;;;;;5.00;1.60;;;;;;;;;;4914339;29;20463;-63
2023/01/03 14:53:15;;;;;;;5.77;1.77;;;;;;;;;;4928896;29;20196;-63
2023/01/03 14:55:42;;;;;;;4.43;1.83;;;;;;;;;;4931540;29;20202;-63
2023/01/03 14:58:18;;;;;;;8.17;2.70;;;;;;;;;;4898128;29;20780;-62
2023/01/03 15:00:45;;;;;;;8.10;2.37;;;;;;;;;;4916877;29;20198;-65
2023/01/03 15:03:12;;;;;;;6.53;1.60;;;;;;;;;;4918507;29;20483;-65
2023/01/03 15:05:42;;;;;;;4.83;2.20;;;;;;;;;;4917953;29;20196;-64
2023/01/03 15:08:09;;;;;;;9.33;2.10;;;;;;;;;;4914928;29;20432;-65
2023/01/03 15:10:46;;;;;;;5.80;2.17;;;;;;;;;;4915061;29;20199;-65
2023/01/03 15:13:18;;;;;;;7.03;2.20;;;;;;;;;;4913504;29;20451;-65
2023/01/03 15:15:45;;;;;;;3.40;1.60;;;;;;;;;;4913177;29;20207;-65
2023/01/03 15:18:11;;;;;;;8.63;2.80;;;;;;;;;;4912916;29;20452;-65
2023/01/03 15:20:56;;;;;;;7.63;2.30;;;;;;;;;;4913165;29;20175;-65
2023/01/03 15:23:26;;;;;;;6.70;2.83;;;;;;;;;;4909303;29;20234;-65
2023/01/03 15:25:53;;;;;;;5.10;1.57;;;;;;;;;;4921289;29;20592;-63
2023/01/03 15:28:26;;;;;;;8.53;3.33;;;;;;;;;;4920229;29;20426;-63
2023/01/03 15:30:54;;;;;;;6.87;4.17;;;;;;;;;;4920276;29;21054;-65
2023/01/03 15:33:33;;;;;;;6.00;2.50;;;;;;;;;;4933251;29;20258;-63
2023/01/03 15:36:06;;;;;;;4.40;1.90;;;;;;;;;;4930609;29;20199;-63
2023/01/03 15:38:43;;;;;;;6.07;2.10;;;;;;;;;;4934354;29;20209;-63
2023/01/03 15:44:36;;;;;;;7.57;3.33;;;;;;;;;;4916560;29;20651;-63
2023/01/03 15:47:05;;;;;;;8.90;2.40;;;;;;;;;;4936833;29;20454;-63
2023/01/03 15:49:36;;;;;;;8.63;2.40;;;;;;;;;;4929640;29;21005;-63
2023/01/03 15:52:03;;;;;;;7.63;2.33;;;;;;;;;;4928903;29;20442;-64
2023/01/03 15:54:29;;;;;;;6.83;2.50;;;;;;;;;;4931285;29;20201;-64
2023/01/03 15:56:57;;;;;;;7.10;2.80;;;;;;;;;;4937967;29;20528;-64
2023/01/03 15:59:25;;;;;;;6.13;2.73;;;;;;;;;;4936743;29;20435;-64
2023/01/03 16:01:51;;;;;;;5.73;3.60;;;;;;;;;;4935927;29;20450;-65
2023/01/03 16:04:18;;;;;;;8.70;3.20;;;;;;;;;;4924102;29;20286;-65
2023/01/03 16:06:45;;;;;;;8.53;4.13;;;;;;;;;;4921790;29;21117;-65
2023/01/03 16:09:12;;;;;;;6.53;2.93;;;;;;;;;;4938660;29;20437;-65
2023/01/03 16:11:40;;;;;;;6.13;1.80;;;;;;;;;;4941752;29;20191;-65
2023/01/03 16:14:10;;;;;;;4.60;2.20;;;;;;;;;;4944767;29;20244;-64
2023/01/03 16:16:39;;;;;;;5.37;2.50;;;;;;;;;;4929376;29;20485;-65
2023/01/03 16:19:06;;;;;;;5.13;2.10;;;;;;;;;;4946566;28;20209;-65
2023/01/03 16:21:33;;;;;;;3.80;1.83;;;;;;;;;;4915568;29;20546;-64
2023/01/03 16:24:01;;;;;;;5.70;1.70;;;;;;;;;;4906639;29;20234;-65
2023/01/03 16:26:28;;;;;;;6.07;1.60;;;;;;;;;;4933794;29;20977;-65
2023/01/03 16:28:58;;;;;;;4.63;2.10;;;;;;;;;;4936562;29;20194;-64
2023/01/03 16:31:31;;;;;;;2.90;1.60;;;;;;;;;;4938662;29;20922;-64
2023/01/03 16:33:58;;;;;;;4.90;1.40;;;;;;;;;;4929613;28;20577;-64
2023/01/03 16:36:58;;;;;;;5.73;1.93;;;;;;;;;;4936060;29;20486;-63
2023/01/03 16:39:25;;;;;;;4.20;2.20;;;;;;;;;;4920374;29;20469;-64
2023/01/03 16:42:12;;;;;;;6.97;3.13;;;;;;;;;;4937843;28;20457;-65
2023/01/03 16:44:57;;;;;;;4.37;1.90;;;;;;;;;;4934719;29;21226;-63
2023/01/03 16:47:28;;;;;;;4.23;2.07;;;;;;;;;;4916818;29;20980;-64